sensor_id;sensor_type;location;lat;lon;timestamp;pressure;altitude;pressure_sealevel;temperature;humidity
73692;BME280;61996;49.910;35.562;2024-03-22T00:02:53;99771.13;;;19.94;40.29
73692;BME280;61996;49.910;35.562;2024-03-22T00:05:54;99771.84;;;19.96;40.48
73692;BME280;61996;49.910;35.562;2024-03-22T00:08:57;99769.59;;;19.92;40.43
73692;BME280;61996;49.910;35.562;2024-03-22T00:11:58;99772.97;;;19.94;40.63
73692;BME280;61996;49.910;35.562;2024-03-22T00:15:00;99766.50;;;19.87;40.85
73692;BME280;61996;49.910;35.562;2024-03-22T00:18:01;99766.66;;;19.85;40.58
73692;BME280;61996;49.910;35.562;2024-03-22T00:21:03;99764.28;;;19.82;40.66
73692;BME280;61996;49.910;35.562;2024-03-22T00:24:06;99764.41;;;19.81;40.72
73692;BME280;61996;49.910;35.562;2024-03-22T00:27:07;99767.06;;;19.81;40.35
73692;BME280;61996;49.910;35.562;2024-03-22T00:30:08;99761.75;;;19.90;40.78
73692;BME280;61996;49.910;35.562;2024-03-22T00:33:10;99757.25;;;19.81;40.89
73692;BME280;61996;49.910;35.562;2024-03-22T00:36:11;99755.59;;;19.70;40.63
73692;BME280;61996;49.910;35.562;2024-03-22T00:39:15;99760.91;;;19.70;40.80
73692;BME280;61996;49.910;35.562;2024-03-22T00:42:16;99755.59;;;19.70;40.66
73692;BME280;61996;49.910;35.562;2024-03-22T00:45:17;99753.75;;;19.71;40.78
73692;BME280;61996;49.910;35.562;2024-03-22T00:48:19;99748.72;;;19.68;40.82
73692;BME280;61996;49.910;35.562;2024-03-22T00:51:20;99755.16;;;19.65;40.90
73692;BME280;61996;49.910;35.562;2024-03-22T00:54:24;99746.88;;;19.68;41.01
73692;BME280;61996;49.910;35.562;2024-03-22T00:57:24;99746.16;;;19.66;40.99
73692;BME280;61996;49.910;35.562;2024-03-22T01:00:26;99747.16;;;19.65;40.87
73692;BME280;61996;49.910;35.562;2024-03-22T01:03:27;99739.56;;;19.61;40.63
73692;BME280;61996;49.910;35.562;2024-03-22T01:06:30;99739.56;;;19.61;41.12
73692;BME280;61996;49.910;35.562;2024-03-22T01:09:32;99732.69;;;19.58;41.00
73692;BME280;61996;49.910;35.562;2024-03-22T01:12:34;99733.69;;;19.57;40.98
73692;BME280;61996;49.910;35.562;2024-03-22T01:15:35;99738.28;;;19.55;40.94
73692;BME280;61996;49.910;35.562;2024-03-22T01:18:37;99732.94;;;19.55;40.80
73692;BME280;61996;49.910;35.562;2024-03-22T01:21:38;99738.84;;;19.49;41.04
73692;BME280;61996;49.910;35.562;2024-03-22T01:24:41;99737.84;;;19.50;41.10
73692;BME280;61996;49.910;35.562;2024-03-22T01:27:42;99742.06;;;19.53;41.16
73692;BME280;61996;49.910;35.562;2024-03-22T01:30:44;99735.47;;;19.57;41.02
73692;BME280;61996;49.910;35.562;2024-03-22T01:33:45;99738.13;;;19.57;40.84
73692;BME280;61996;49.910;35.562;2024-03-22T01:36:47;99735.09;;;19.61;40.95
73692;BME280;61996;49.910;35.562;2024-03-22T01:39:50;99725.22;;;19.52;41.00
73692;BME280;61996;49.910;35.562;2024-03-22T01:42:52;99731.09;;;19.46;40.92
73692;BME280;61996;49.910;35.562;2024-03-22T01:45:54;99729.00;;;19.40;41.02
73692;BME280;61996;49.910;35.562;2024-03-22T01:48:56;99722.97;;;19.38;41.04
73692;BME280;61996;49.910;35.562;2024-03-22T01:51:58;99719.63;;;19.36;41.09
73692;BME280;61996;49.910;35.562;2024-03-22T01:55:00;99713.44;;;19.35;41.19
73692;BME280;61996;49.910;35.562;2024-03-22T01:58:02;99711.75;;;19.34;40.94
73692;BME280;61996;49.910;35.562;2024-03-22T02:01:04;99713.28;;;19.37;41.20
73692;BME280;61996;49.910;35.562;2024-03-22T02:04:05;99722.53;;;19.33;40.93
73692;BME280;61996;49.910;35.562;2024-03-22T02:07:07;99728.84;;;19.32;41.05
73692;BME280;61996;49.910;35.562;2024-03-22T02:10:09;99721.59;;;19.34;41.07
73692;BME280;61996;49.910;35.562;2024-03-22T02:13:12;99725.22;;;19.33;41.00
73692;BME280;61996;49.910;35.562;2024-03-22T02:16:14;99717.78;;;19.27;41.13
73692;BME280;61996;49.910;35.562;2024-03-22T02:19:15;99725.06;;;19.25;41.31
73692;BME280;61996;49.910;35.562;2024-03-22T02:22:17;99717.78;;;19.27;41.23
73692;BME280;61996;49.910;35.562;2024-03-22T02:25:19;99722.28;;;19.26;41.12
73692;BME280;61996;49.910;35.562;2024-03-22T02:28:21;99728.72;;;19.24;41.14
73692;BME280;61996;49.910;35.562;2024-03-22T02:31:22;99725.91;;;19.25;41.09
73692;BME280;61996;49.910;35.562;2024-03-22T02:34:26;99720.88;;;19.41;40.77
73692;BME280;61996;49.910;35.562;2024-03-22T02:37:26;99715.97;;;19.27;40.77
73692;BME280;61996;49.910;35.562;2024-03-22T02:48:06;99726.47;;;19.19;41.11
73692;BME280;61996;49.910;35.562;2024-03-22T02:51:08;99728.16;;;19.20;41.05
73692;BME280;61996;49.910;35.562;2024-03-22T02:54:09;99730.53;;;19.13;41.11
73692;BME280;61996;49.910;35.562;2024-03-22T02:57:11;99729.13;;;19.09;41.23
73692;BME280;61996;49.910;35.562;2024-03-22T03:00:13;99727.44;;;19.08;41.05
73692;BME280;61996;49.910;35.562;2024-03-22T03:03:15;99720.28;;;19.09;41.05
73692;BME280;61996;49.910;35.562;2024-03-22T03:06:17;99716.50;;;19.11;41.16
73692;BME280;61996;49.910;35.562;2024-03-22T03:09:20;99718.47;;;19.09;40.96
73692;BME280;61996;49.910;35.562;2024-03-22T03:12:22;99715.78;;;19.09;41.03
73692;BME280;61996;49.910;35.562;2024-03-22T03:15:24;99712.59;;;19.06;41.05
73692;BME280;61996;49.910;35.562;2024-03-22T03:18:26;99713.41;;;19.06;41.15
73692;BME280;61996;49.910;35.562;2024-03-22T03:21:28;99707.78;;;19.19;40.96
73692;BME280;61996;49.910;35.562;2024-03-22T03:24:29;99719.44;;;19.18;40.98
73692;BME280;61996;49.910;35.562;2024-03-22T03:27:30;99722.13;;;19.18;41.00
73692;BME280;61996;49.910;35.562;2024-03-22T03:30:31;99709.91;;;19.15;40.55
73692;BME280;61996;49.910;35.562;2024-03-22T03:33:35;99719.47;;;19.28;40.52
73692;BME280;61996;49.910;35.562;2024-03-22T03:36:37;99710.91;;;19.34;40.57
73692;BME280;61996;49.910;35.562;2024-03-22T03:39:38;99712.31;;;19.38;40.33
73692;BME280;61996;49.910;35.562;2024-03-22T03:42:40;99715.53;;;19.51;39.97
73692;BME280;61996;49.910;35.562;2024-03-22T03:45:42;99705.75;;;19.61;39.88
73692;BME280;61996;49.910;35.562;2024-03-22T03:48:44;99700.38;;;19.71;39.63
73692;BME280;61996;49.910;35.562;2024-03-22T03:51:46;99713.00;;;19.79;39.54
73692;BME280;61996;49.910;35.562;2024-03-22T03:54:47;99708.63;;;19.87;39.22
73692;BME280;61996;49.910;35.562;2024-03-22T03:57:49;99719.72;;;19.92;39.40
73692;BME280;61996;49.910;35.562;2024-03-22T04:00:51;99712.41;;;19.94;39.41
73692;BME280;61996;49.910;35.562;2024-03-22T04:03:53;99716.75;;;20.05;39.31
73692;BME280;61996;49.910;35.562;2024-03-22T04:06:55;99713.94;;;20.07;39.14
73692;BME280;61996;49.910;35.562;2024-03-22T04:09:56;99709.00;;;20.12;39.03
73692;BME280;61996;49.910;35.562;2024-03-22T04:13:00;99720.53;;;20.12;39.02
73692;BME280;61996;49.910;35.562;2024-03-22T04:16:01;99716.72;;;20.15;38.81
73692;BME280;61996;49.910;35.562;2024-03-22T04:19:04;99721.22;;;20.14;39.14
73692;BME280;61996;49.910;35.562;2024-03-22T04:22:05;99722.63;;;20.09;39.00
73692;BME280;61996;49.910;35.562;2024-03-22T04:25:07;99728.28;;;20.06;39.24
73692;BME280;61996;49.910;35.562;2024-03-22T04:28:09;99721.69;;;20.10;39.34
73692;BME280;61996;49.910;35.562;2024-03-22T04:31:17;99721.78;;;20.08;39.17
73692;BME280;61996;49.910;35.562;2024-03-22T04:34:26;99733.31;;;20.09;39.37
73692;BME280;61996;49.910;35.562;2024-03-22T04:37:28;99730.97;;;19.96;40.11
73692;BME280;61996;49.910;35.562;2024-03-22T04:40:30;99737.72;;;19.90;40.02
73692;BME280;61996;49.910;35.562;2024-03-22T04:43:32;99731.41;;;19.82;40.56
73692;BME280;61996;49.910;35.562;2024-03-22T04:46:34;99733.66;;;19.77;40.24
73692;BME280;61996;49.910;35.562;2024-03-22T04:49:37;99733.81;;;19.75;40.41
73692;BME280;61996;49.910;35.562;2024-03-22T04:52:38;99733.09;;;19.83;40.27
73692;BME280;61996;49.910;35.562;2024-03-22T04:55:40;99731.41;;;19.82;40.26
73692;BME280;61996;49.910;35.562;2024-03-22T04:58:45;99734.38;;;19.69;40.46
73692;BME280;61996;49.910;35.562;2024-03-22T05:01:47;99744.06;;;19.60;40.73
73692;BME280;61996;49.910;35.562;2024-03-22T05:04:49;99730.72;;;19.60;40.35
73692;BME280;61996;49.910;35.562;2024-03-22T05:07:51;99739.97;;;19.56;40.67
73692;BME280;61996;49.910;35.562;2024-03-22T05:10:52;99743.63;;;19.55;40.62
73692;BME280;61996;49.910;35.562;2024-03-22T05:13:54;99732.22;;;19.53;40.82
73692;BME280;61996;49.910;35.562;2024-03-22T05:16:55;99730.56;;;19.52;41.13
73692;BME280;61996;49.910;35.562;2024-03-22T05:19:58;99739.00;;;19.48;40.97
73692;BME280;61996;49.910;35.562;2024-03-22T05:22:59;99731.13;;;19.56;40.94
73692;BME280;61996;49.910;35.562;2024-03-22T05:26:01;99733.38;;;19.41;40.11
73692;BME280;61996;49.910;35.562;2024-03-22T05:29:02;99732.38;;;19.42;40.63
73692;BME280;61996;49.910;35.562;2024-03-22T05:32:04;99735.88;;;19.52;40.73
73692;BME280;61996;49.910;35.562;2024-03-22T05:35:07;99724.53;;;19.50;40.41
73692;BME280;61996;49.910;35.562;2024-03-22T05:38:09;99729.16;;;19.48;40.52
73692;BME280;61996;49.910;35.562;2024-03-22T05:41:12;99720.72;;;19.43;40.61
73692;BME280;61996;49.910;35.562;2024-03-22T05:44:13;99723.81;;;19.38;40.78
73692;BME280;61996;49.910;35.562;2024-03-22T05:47:14;99730.53;;;19.33;40.83
73692;BME280;61996;49.910;35.562;2024-03-22T05:50:17;99723.53;;;19.32;40.74
73692;BME280;61996;49.910;35.562;2024-03-22T05:53:21;99724.25;;;19.34;40.79
73692;BME280;61996;49.910;35.562;2024-03-22T05:56:21;99720.16;;;19.30;40.72
73692;BME280;61996;49.910;35.562;2024-03-22T05:59:23;99724.66;;;19.29;40.68
73692;BME280;61996;49.910;35.562;2024-03-22T06:02:24;99713.16;;;19.29;40.72
73692;BME280;61996;49.910;35.562;2024-03-22T06:05:28;99716.22;;;19.24;40.85
73692;BME280;61996;49.910;35.562;2024-03-22T06:08:29;99715.38;;;19.24;40.80
73692;BME280;61996;49.910;35.562;2024-03-22T06:11:32;99715.38;;;19.24;40.86
73692;BME280;61996;49.910;35.562;2024-03-22T06:14:34;99716.22;;;19.24;40.81
73692;BME280;61996;49.910;35.562;2024-03-22T06:17:36;99714.69;;;19.22;40.80
73692;BME280;61996;49.910;35.562;2024-03-22T06:20:38;99710.06;;;19.24;40.71
73692;BME280;61996;49.910;35.562;2024-03-22T06:23:40;99717.75;;;19.17;40.69
73692;BME280;61996;49.910;35.562;2024-03-22T06:26:43;99716.38;;;19.13;40.85
73692;BME280;61996;49.910;35.562;2024-03-22T06:29:44;99715.25;;;19.15;40.86
73692;BME280;61996;49.910;35.562;2024-03-22T06:32:46;99716.38;;;19.13;40.82
73692;BME280;61996;49.910;35.562;2024-03-22T06:35:49;99722.41;;;19.15;40.88
73692;BME280;61996;49.910;35.562;2024-03-22T06:38:51;99717.22;;;19.13;40.95
73692;BME280;61996;49.910;35.562;2024-03-22T06:41:52;99717.63;;;19.09;40.80
73692;BME280;61996;49.910;35.562;2024-03-22T06:44:53;99719.31;;;19.10;40.85
73692;BME280;61996;49.910;35.562;2024-03-22T06:47:55;99724.78;;;19.08;40.88
73692;BME280;61996;49.910;35.562;2024-03-22T06:50:57;99722.13;;;19.08;40.88
73692;BME280;61996;49.910;35.562;2024-03-22T06:53:59;99721.97;;;19.10;40.91
73692;BME280;61996;49.910;35.562;2024-03-22T06:57:01;99723.94;;;19.08;40.98
73692;BME280;61996;49.910;35.562;2024-03-22T07:00:03;99726.59;;;19.08;40.78
73692;BME280;61996;49.910;35.562;2024-03-22T07:03:05;99724.91;;;19.07;40.97
73692;BME280;61996;49.910;35.562;2024-03-22T07:06:08;99719.72;;;19.05;40.82
73692;BME280;61996;49.910;35.562;2024-03-22T07:09:10;99714.38;;;19.05;40.86
73692;BME280;61996;49.910;35.562;2024-03-22T07:12:12;99712.59;;;19.06;40.86
73692;BME280;61996;49.910;35.562;2024-03-22T07:15:13;99716.63;;;19.00;41.02
73692;BME280;61996;49.910;35.562;2024-03-22T07:18:15;99712.97;;;19.01;40.76
73692;BME280;61996;49.910;35.562;2024-03-22T07:21:17;99706.97;;;18.99;40.72
73692;BME280;61996;49.910;35.562;2024-03-22T07:24:19;99711.84;;;19.04;40.80
73692;BME280;61996;49.910;35.562;2024-03-22T07:27:20;99713.69;;;19.03;40.83
73692;BME280;61996;49.910;35.562;2024-03-22T07:30:21;99720.41;;;18.98;40.82
73692;BME280;61996;49.910;35.562;2024-03-22T07:33:22;99714.94;;;18.99;40.78
73692;BME280;61996;49.910;35.562;2024-03-22T07:36:25;99712.53;;;18.96;40.91
73692;BME280;61996;49.910;35.562;2024-03-22T07:39:28;99708.34;;;18.94;40.78
73692;BME280;61996;49.910;35.562;2024-03-22T07:42:30;99708.19;;;18.95;40.83
73692;BME280;61996;49.910;35.562;2024-03-22T07:45:31;99704.84;;;18.93;40.95
73692;BME280;61996;49.910;35.562;2024-03-22T07:48:33;99700.59;;;18.90;40.89
73692;BME280;61996;49.910;35.562;2024-03-22T07:51:36;99706.78;;;18.91;40.80
73692;BME280;61996;49.910;35.562;2024-03-22T07:54:37;99701.59;;;18.89;40.79
73692;BME280;61996;49.910;35.562;2024-03-22T07:57:39;99711.41;;;18.89;40.94
73692;BME280;61996;49.910;35.562;2024-03-22T08:00:40;99709.31;;;18.93;40.71
73692;BME280;61996;49.910;35.562;2024-03-22T08:03:42;99704.13;;;18.91;40.80
73692;BME280;61996;49.910;35.562;2024-03-22T08:06:44;99704.41;;;18.88;40.89
73692;BME280;61996;49.910;35.562;2024-03-22T08:09:46;99709.44;;;18.91;40.72
73692;BME280;61996;49.910;35.562;2024-03-22T08:12:47;99696.25;;;18.89;40.48
73692;BME280;61996;49.910;35.562;2024-03-22T08:15:48;99696.84;;;18.93;40.67
73692;BME280;61996;49.910;35.562;2024-03-22T08:18:49;99687.44;;;18.89;40.67
73692;BME280;61996;49.910;35.562;2024-03-22T08:21:53;99689.25;;;18.88;40.83
73692;BME280;61996;49.910;35.562;2024-03-22T08:24:53;99689.84;;;19.02;40.48
73692;BME280;61996;49.910;35.562;2024-03-22T08:27:56;99686.44;;;18.90;40.98
73692;BME280;61996;49.910;35.562;2024-03-22T08:30:57;99681.13;;;18.90;40.56
73692;BME280;61996;49.910;35.562;2024-03-22T08:33:59;99682.25;;;18.87;40.78
73692;BME280;61996;49.910;35.562;2024-03-22T08:37:03;99672.81;;;18.83;40.77
73692;BME280;61996;49.910;35.562;2024-03-22T08:40:09;99679.72;;;18.86;40.86
73692;BME280;61996;49.910;35.562;2024-03-22T08:43:14;99672.13;;;18.91;40.74
73692;BME280;61996;49.910;35.562;2024-03-22T08:46:16;99681.25;;;18.88;40.88
73692;BME280;61996;49.910;35.562;2024-03-22T08:49:17;99667.63;;;18.82;40.79
73692;BME280;61996;49.910;35.562;2024-03-22T08:52:21;99666.66;;;18.83;40.73
73692;BME280;61996;49.910;35.562;2024-03-22T08:55:23;99667.50;;;18.83;40.87
73692;BME280;61996;49.910;35.562;2024-03-22T08:58:24;99667.63;;;18.82;40.80
73692;BME280;61996;49.910;35.562;2024-03-22T09:01:25;99665.97;;;18.81;40.91
73692;BME280;61996;49.910;35.562;2024-03-22T09:04:27;99667.94;;;18.79;40.80
73692;BME280;61996;49.910;35.562;2024-03-22T09:07:29;99669.75;;;18.78;40.90
73692;BME280;61996;49.910;35.562;2024-03-22T09:10:31;99667.22;;;18.77;40.83
73692;BME280;61996;49.910;35.562;2024-03-22T09:13:34;99676.03;;;18.77;40.81
73692;BME280;61996;49.910;35.562;2024-03-22T09:16:35;99671.69;;;18.76;40.71
73692;BME280;61996;49.910;35.562;2024-03-22T09:19:37;99670.84;;;18.76;40.70
73692;BME280;61996;49.910;35.562;2024-03-22T09:22:39;99678.44;;;18.71;40.67
73692;BME280;61996;49.910;35.562;2024-03-22T09:25:41;99678.28;;;18.72;40.71
73692;BME280;61996;49.910;35.562;2024-03-22T09:28:43;99675.50;;;18.74;40.71
73692;BME280;61996;49.910;35.562;2024-03-22T09:31:47;99673.50;;;18.76;40.74
73692;BME280;61996;49.910;35.562;2024-03-22T09:34:48;99661.19;;;18.75;40.66
73692;BME280;61996;49.910;35.562;2024-03-22T09:37:52;99669.31;;;18.73;40.76
73692;BME280;61996;49.910;35.562;2024-03-22T09:40:56;99673.50;;;18.76;40.60
73692;BME280;61996;49.910;35.562;2024-03-22T09:43:58;99671.97;;;18.73;40.72
73692;BME280;61996;49.910;35.562;2024-03-22T09:47:00;99671.28;;;18.71;40.67
73692;BME280;61996;49.910;35.562;2024-03-22T09:50:04;99661.59;;;18.70;40.72
73692;BME280;61996;49.910;35.562;2024-03-22T09:53:08;99645.59;;;18.70;40.56
73692;BME280;61996;49.910;35.562;2024-03-22T09:56:12;99640.16;;;18.72;40.59
73692;BME280;61996;49.910;35.562;2024-03-22T09:59:14;99643.81;;;18.71;40.73
73692;BME280;61996;49.910;35.562;2024-03-22T10:02:16;99641.00;;;18.72;40.55
73692;BME280;61996;49.910;35.562;2024-03-22T10:05:18;99636.50;;;18.73;40.49
73692;BME280;61996;49.910;35.562;2024-03-22T10:08:21;99639.56;;;18.68;40.55
73692;BME280;61996;49.910;35.562;2024-03-22T10:11:22;99640.56;;;18.67;40.46
73692;BME280;61996;49.910;35.562;2024-03-22T10:14:24;99648.41;;;18.69;40.64
73692;BME280;61996;49.910;35.562;2024-03-22T10:17:26;99641.13;;;18.71;40.51
73692;BME280;61996;49.910;35.562;2024-03-22T10:20:28;99626.41;;;18.67;40.58
73692;BME280;61996;49.910;35.562;2024-03-22T10:23:30;99614.03;;;18.66;40.39
73692;BME280;61996;49.910;35.562;2024-03-22T10:26:33;99621.06;;;18.67;40.69
73692;BME280;61996;49.910;35.562;2024-03-22T10:29:34;99620.22;;;18.66;40.52
73692;BME280;61996;49.910;35.562;2024-03-22T10:32:36;99616.59;;;18.67;40.53
73692;BME280;61996;49.910;35.562;2024-03-22T10:35:38;99614.03;;;18.66;40.42
73692;BME280;61996;49.910;35.562;2024-03-22T10:38:41;99608.72;;;18.66;40.38
73692;BME280;61996;49.910;35.562;2024-03-22T10:41:44;99601.97;;;18.61;40.55
73692;BME280;61996;49.910;35.562;2024-03-22T10:44:45;99603.53;;;18.64;40.46
73692;BME280;61996;49.910;35.562;2024-03-22T10:47:47;99600.00;;;18.63;40.46
73692;BME280;61996;49.910;35.562;2024-03-22T10:50:50;99600.00;;;18.63;40.59
73692;BME280;61996;49.910;35.562;2024-03-22T10:53:55;99591.16;;;18.63;40.42
73692;BME280;61996;49.910;35.562;2024-03-22T10:56:58;99589.22;;;18.65;40.40
73692;BME280;61996;49.910;35.562;2024-03-22T10:59:59;99587.53;;;18.64;40.61
73692;BME280;61996;49.910;35.562;2024-03-22T11:03:01;99589.47;;;18.62;40.48
73692;BME280;61996;49.910;35.562;2024-03-22T11:06:07;99585.72;;;18.65;40.35
73692;BME280;61996;49.910;35.562;2024-03-22T11:09:10;99585.97;;;18.61;40.47
73692;BME280;61996;49.910;35.562;2024-03-22T11:12:11;99592.97;;;18.62;40.37
73692;BME280;61996;49.910;35.562;2024-03-22T11:15:14;99580.50;;;18.63;40.36
73692;BME280;61996;49.910;35.562;2024-03-22T11:18:15;99582.31;;;18.62;40.36
73692;BME280;61996;49.910;35.562;2024-03-22T11:21:17;99588.78;;;18.60;40.44
73692;BME280;61996;49.910;35.562;2024-03-22T11:24:19;99584.44;;;18.59;40.52
73692;BME280;61996;49.910;35.562;2024-03-22T11:27:21;99576.47;;;18.59;40.52
73692;BME280;61996;49.910;35.562;2024-03-22T11:30:23;99571.97;;;18.59;40.46
73692;BME280;61996;49.910;35.562;2024-03-22T11:33:25;99568.31;;;18.60;40.43
73692;BME280;61996;49.910;35.562;2024-03-22T11:36:27;99556.00;;;18.59;40.49
73692;BME280;61996;49.910;35.562;2024-03-22T11:39:30;99558.66;;;18.59;40.38
73692;BME280;61996;49.910;35.562;2024-03-22T11:42:31;99561.03;;;18.62;40.42
73692;BME280;61996;49.910;35.562;2024-03-22T11:45:33;99549.81;;;18.59;40.48
73692;BME280;61996;49.910;35.562;2024-03-22T11:48:38;99546.56;;;18.55;40.50
73692;BME280;61996;49.910;35.562;2024-03-22T11:51:40;99553.47;;;18.58;40.33
73692;BME280;61996;49.910;35.562;2024-03-22T11:54:42;99544.75;;;18.56;40.34
73692;BME280;61996;49.910;35.562;2024-03-22T11:57:47;99546.56;;;18.55;40.52
73692;BME280;61996;49.910;35.562;2024-03-22T12:00:49;99544.22;;;18.52;40.48
73692;BME280;61996;49.910;35.562;2024-03-22T12:03:50;99539.31;;;18.57;40.44
73692;BME280;61996;49.910;35.562;2024-03-22T12:06:52;99530.88;;;18.52;40.45
73692;BME280;61996;49.910;35.562;2024-03-22T12:09:59;99531.16;;;18.49;40.61
73692;BME280;61996;49.910;35.562;2024-03-22T12:13:00;99521.22;;;18.51;40.48
73692;BME280;61996;49.910;35.562;2024-03-22T12:16:03;99522.91;;;18.52;40.47
73692;BME280;61996;49.910;35.562;2024-03-22T12:19:04;99521.91;;;18.53;40.53
73692;BME280;61996;49.910;35.562;2024-03-22T12:22:07;99527.38;;;18.52;40.39
73692;BME280;61996;49.910;35.562;2024-03-22T12:25:09;99523.06;;;18.51;40.48
73692;BME280;61996;49.910;35.562;2024-03-22T12:28:12;99519.53;;;18.50;40.26
73692;BME280;61996;49.910;35.562;2024-03-22T12:31:13;99506.78;;;18.54;40.40
73692;BME280;61996;49.910;35.562;2024-03-22T12:34:15;99501.44;;;18.54;40.39
73692;BME280;61996;49.910;35.562;2024-03-22T12:37:16;99506.22;;;18.50;40.43
73692;BME280;61996;49.910;35.562;2024-03-22T12:40:19;99520.50;;;18.49;40.31
73692;BME280;61996;49.910;35.562;2024-03-22T12:43:21;99512.50;;;18.49;40.43
73692;BME280;61996;49.910;35.562;2024-03-22T12:46:22;99515.16;;;18.49;40.36
73692;BME280;61996;49.910;35.562;2024-03-22T12:49:29;99499.19;;;18.49;40.43
73692;BME280;61996;49.910;35.562;2024-03-22T12:52:30;99501.84;;;18.49;40.47
73692;BME280;61996;49.910;35.562;2024-03-22T12:55:33;99504.53;;;18.49;40.48
73692;BME280;61996;49.910;35.562;2024-03-22T12:58:34;99496.53;;;18.49;40.41
73692;BME280;61996;49.910;35.562;2024-03-22T13:01:35;99496.41;;;18.51;40.49
73692;BME280;61996;49.910;35.562;2024-03-22T13:04:37;99482.66;;;18.46;40.46
73692;BME280;61996;49.910;35.562;2024-03-22T13:07:39;99489.28;;;18.51;40.46
73692;BME280;61996;49.910;35.562;2024-03-22T13:10:41;99478.88;;;18.48;40.33
73692;BME280;61996;49.910;35.562;2024-03-22T13:13:45;99479.75;;;18.68;40.18
73692;BME280;61996;49.910;35.562;2024-03-22T13:17:00;99472.72;;;18.77;41.27
73692;BME280;61996;49.910;35.562;2024-03-22T13:20:03;99469.09;;;18.68;40.27
73692;BME280;61996;49.910;35.562;2024-03-22T13:23:10;99471.03;;;18.56;40.58
73692;BME280;61996;49.910;35.562;2024-03-22T13:26:15;99470.06;;;18.48;40.77
73692;BME280;61996;49.910;35.562;2024-03-22T13:29:16;99468.66;;;18.44;40.68
73692;BME280;61996;49.910;35.562;2024-03-22T13:32:18;99462.22;;;18.46;40.78
73692;BME280;61996;49.910;35.562;2024-03-22T13:35:20;99454.91;;;18.48;40.95
73692;BME280;61996;49.910;35.562;2024-03-22T13:38:22;99461.25;;;18.67;40.42
73692;BME280;61996;49.910;35.562;2024-03-22T13:41:26;99460.13;;;18.79;40.24
73692;BME280;61996;49.910;35.562;2024-03-22T13:44:28;99462.34;;;18.93;40.07
73692;BME280;61996;49.910;35.562;2024-03-22T13:47:29;99462.16;;;19.04;39.80
73692;BME280;61996;49.910;35.562;2024-03-22T13:50:31;99459.47;;;19.14;39.55
73692;BME280;61996;49.910;35.562;2024-03-22T13:53:33;99458.59;;;19.23;39.37
73692;BME280;61996;49.910;35.562;2024-03-22T13:56:36;99446.53;;;19.29;38.95
73692;BME280;61996;49.910;35.562;2024-03-22T13:59:38;99455.78;;;19.34;39.01
73692;BME280;61996;49.910;35.562;2024-03-22T14:02:40;99445.06;;;19.44;39.02
73692;BME280;61996;49.910;35.562;2024-03-22T14:05:42;99448.56;;;19.44;38.94
73692;BME280;61996;49.910;35.562;2024-03-22T14:08:44;99446.97;;;19.52;39.02
73692;BME280;61996;49.910;35.562;2024-03-22T14:11:46;99445.59;;;19.57;38.88
73692;BME280;61996;49.910;35.562;2024-03-22T14:14:49;99441.94;;;19.49;38.96
73692;BME280;61996;49.910;35.562;2024-03-22T14:17:50;99443.41;;;19.70;39.02
73692;BME280;61996;49.910;35.562;2024-03-22T14:20:52;99448.53;;;19.54;39.42
73692;BME280;61996;49.910;35.562;2024-03-22T14:23:53;99443.38;;;19.43;39.29
73692;BME280;61996;49.910;35.562;2024-03-22T14:26:57;99436.22;;;19.43;39.53
73692;BME280;61996;49.910;35.562;2024-03-22T14:29:58;99436.53;;;19.40;39.48
73692;BME280;61996;49.910;35.562;2024-03-22T14:33:00;99438.63;;;19.37;39.69
73692;BME280;61996;49.910;35.562;2024-03-22T14:36:01;99436.25;;;19.34;39.62
73692;BME280;61996;49.910;35.562;2024-03-22T14:39:03;99436.25;;;19.34;39.74
73692;BME280;61996;49.910;35.562;2024-03-22T14:42:07;99423.22;;;19.31;39.58
73692;BME280;61996;49.910;35.562;2024-03-22T14:45:09;99428.13;;;19.26;39.74
73692;BME280;61996;49.910;35.562;2024-03-22T14:48:11;99433.63;;;19.24;39.74
73692;BME280;61996;49.910;35.562;2024-03-22T14:51:12;99431.09;;;19.23;39.62
73692;BME280;61996;49.910;35.562;2024-03-22T14:54:17;99437.28;;;19.23;39.67
73692;BME280;61996;49.910;35.562;2024-03-22T14:57:19;99437.16;;;19.15;39.71
73692;BME280;61996;49.910;35.562;2024-03-22T15:00:21;99437.59;;;19.10;39.77
73692;BME280;61996;49.910;35.562;2024-03-22T15:03:22;99441.25;;;19.09;39.89
73692;BME280;61996;49.910;35.562;2024-03-22T15:06:25;99436.22;;;19.06;39.92
73692;BME280;61996;49.910;35.562;2024-03-22T15:09:26;99436.50;;;19.03;40.08
73692;BME280;61996;49.910;35.562;2024-03-22T15:12:29;99435.50;;;19.04;40.07
73692;BME280;61996;49.910;35.562;2024-03-22T15:15:30;99433.72;;;18.95;40.11
73692;BME280;61996;49.910;35.562;2024-03-22T15:18:31;99428.69;;;18.92;40.14
73692;BME280;61996;49.910;35.562;2024-03-22T15:21:32;99422.22;;;18.95;40.06
73692;BME280;61996;49.910;35.562;2024-03-22T15:24:35;99421.94;;;18.88;40.20
73692;BME280;61996;49.910;35.562;2024-03-22T15:27:38;99430.50;;;18.92;40.12
73692;BME280;61996;49.910;35.562;2024-03-22T15:30:40;99429.78;;;18.89;40.20
73692;BME280;61996;49.910;35.562;2024-03-22T15:33:42;99426.59;;;18.86;40.20
73692;BME280;61996;49.910;35.562;2024-03-22T15:36:43;99429.53;;;18.83;40.30
73692;BME280;61996;49.910;35.562;2024-03-22T15:39:46;99425.34;;;18.80;40.30
73692;BME280;61996;49.910;35.562;2024-03-22T15:42:48;99433.19;;;18.82;40.33
73692;BME280;61996;49.910;35.562;2024-03-22T15:45:50;99431.50;;;18.81;40.33
73692;BME280;61996;49.910;35.562;2024-03-22T15:48:51;99424.50;;;18.80;40.31
73692;BME280;61996;49.910;35.562;2024-03-22T15:51:53;99416.06;;;18.94;39.46
73692;BME280;61996;49.910;35.562;2024-03-22T15:54:54;99416.31;;;19.01;40.08
73692;BME280;61996;49.910;35.562;2024-03-22T15:57:57;99409.06;;;18.83;40.16
73692;BME280;61996;49.910;35.562;2024-03-22T16:00:58;99411.44;;;18.77;40.20